createdAt,value
2022-11-09T00:01:05.374Z,98219.47
2022-11-09T00:03:32.445Z,98212.75
2022-11-09T00:06:00.452Z,98221.41
2022-11-09T00:08:28.709Z,98218.69
2022-11-09T00:10:55.485Z,98217.31
2022-11-09T00:13:22.829Z,98221.94
2022-11-09T00:15:50.079Z,98209.84
2022-11-09T00:18:16.883Z,98208.34
2022-11-09T00:20:47.551Z,98195.69
2022-11-09T00:43:47.067Z,98239.09
2022-11-09T00:46:14.671Z,98239.25
2022-11-09T00:48:41.632Z,98237.09
2022-11-09T00:51:09.275Z,98231.34
2022-11-09T00:53:36.668Z,98241.59
2022-11-09T00:56:06.253Z,98228.69
2022-11-09T00:58:36.726Z,98234.03
2022-11-09T01:01:17.177Z,98242.09
2022-11-09T01:03:45.124Z,98251.59
2022-11-09T01:06:22.100Z,98258.31
2022-11-09T01:08:49.858Z,98253.84
2022-11-09T01:11:18.865Z,98259.53
2022-11-09T01:13:46.499Z,98263.16
2022-11-09T01:16:24.102Z,98265.38
2022-11-09T01:18:57.202Z,98274.00
2022-11-09T01:21:24.510Z,98271.81
2022-11-09T01:23:51.130Z,98269.31
2022-11-09T01:26:17.737Z,98270.41
2022-11-09T01:28:44.950Z,98268.31
2022-11-09T01:31:15.522Z,98270.31
2022-11-09T01:33:42.729Z,98272.13
2022-11-09T01:36:13.517Z,98264.13
2022-11-09T01:38:40.443Z,98264.72
2022-11-09T01:41:09.371Z,98278.50
2022-11-09T01:43:36.006Z,98273.13
2022-11-09T01:46:23.674Z,98279.81
2022-11-09T01:49:02.278Z,98272.88
2022-11-09T01:51:39.557Z,98274.97
2022-11-09T01:54:20.861Z,98275.59
2022-11-09T01:56:51.789Z,98280.00
2022-11-09T01:59:24.425Z,98274.97
2022-11-09T02:01:52.035Z,98277.91
2022-11-09T02:04:41.041Z,98282.53
2022-11-09T02:07:08.611Z,98283.09
2022-11-09T02:10:00.867Z,98277.41
2022-11-09T02:12:31.733Z,98283.03
2022-11-09T02:15:01.665Z,98274.66
2022-11-09T02:17:29.669Z,98273.66
2022-11-09T02:19:59.928Z,98272.91
2022-11-09T02:22:26.797Z,98289.00
2022-11-09T02:24:56.358Z,98274.88
2022-11-09T02:27:24.027Z,98277.34
2022-11-09T02:29:51.197Z,98269.97
2022-11-09T02:32:23.004Z,98270.47
2022-11-09T02:34:49.764Z,98262.84
2022-11-09T02:37:35.279Z,98257.31
2022-11-09T02:40:08.003Z,98243.81
2022-11-09T02:42:35.197Z,98243.06
2022-11-09T02:45:03.554Z,98235.75
2022-11-09T02:47:30.188Z,98222.72
2022-11-09T02:49:57.901Z,98235.88
2022-11-09T02:52:24.569Z,98226.09
2022-11-09T02:54:51.195Z,98207.16
2022-11-09T02:57:17.788Z,98210.59
2022-11-09T02:59:44.467Z,98211.63
2022-11-09T03:02:11.155Z,98213.81
2022-11-09T03:04:37.783Z,98212.69
2022-11-09T03:07:04.670Z,98212.84
2022-11-09T03:09:31.266Z,98226.59
2022-11-09T03:11:57.839Z,98229.63
2022-11-09T03:14:26.530Z,98232.34
2022-11-09T03:16:53.118Z,98225.47
2022-11-09T03:19:19.719Z,98234.69
2022-11-09T03:21:46.300Z,98248.47
2022-11-09T03:24:12.991Z,98246.31
2022-11-09T03:26:39.554Z,98236.84
2022-11-09T03:29:06.181Z,98230.41
2022-11-09T03:31:32.752Z,98231.38
2022-11-09T03:33:59.328Z,98252.91
2022-11-09T03:36:25.892Z,98256.09
2022-11-09T03:38:52.463Z,98247.16
2022-11-09T03:41:19.052Z,98243.91
2022-11-09T03:43:45.612Z,98255.22
2022-11-09T03:46:12.202Z,98254.88
2022-11-09T03:48:38.792Z,98272.16
2022-11-09T03:51:05.616Z,98271.28
2022-11-09T03:53:32.167Z,98270.44
2022-11-09T03:55:58.803Z,98267.25
2022-11-09T03:58:25.420Z,98276.56
2022-11-09T04:00:52.180Z,98279.06
2022-11-09T04:03:19.130Z,98262.53
2022-11-09T04:05:46.764Z,98261.38
2022-11-09T04:08:13.314Z,98258.31
2022-11-09T04:10:42.862Z,98259.28
2022-11-09T04:13:09.504Z,98267.69
2022-11-09T04:15:36.212Z,98267.69
2022-11-09T04:18:03.546Z,98266.09
2022-11-09T04:20:31.524Z,98270.66
2022-11-09T04:23:04.360Z,98278.09
2022-11-09T04:25:38.973Z,98274.78
2022-11-09T04:28:07.921Z,98264.41
2022-11-09T04:30:36.193Z,98264.78
2022-11-09T04:33:03.876Z,98261.94
2022-11-09T04:35:32.632Z,98273.50
2022-11-09T04:38:03.981Z,98272.19
2022-11-09T04:40:33.745Z,98267.50
2022-11-09T04:43:05.712Z,98272.47
2022-11-09T04:45:35.669Z,98273.69
2022-11-09T04:48:05.297Z,98264.22
2022-11-09T04:50:33.017Z,98257.03
2022-11-09T04:53:15.287Z,98249.22
2022-11-09T04:55:42.161Z,98227.44
2022-11-09T04:58:09.698Z,98225.72
2022-11-09T05:00:36.765Z,98230.94
2022-11-09T05:03:07.592Z,98239.47
2022-11-09T05:05:36.709Z,98255.88
2022-11-09T05:08:04.797Z,98252.56
2022-11-09T05:10:32.308Z,98239.78
2022-11-09T05:13:08.421Z,98235.22
2022-11-09T05:15:35.988Z,98231.78
2022-11-09T05:18:03.869Z,98229.06
2022-11-09T05:20:31.423Z,98237.47
2022-11-09T05:23:18.432Z,98230.94
2022-11-09T05:25:46.286Z,98236.47
2022-11-09T05:28:13.639Z,98233.63
2022-11-09T05:30:40.558Z,98247.59
2022-11-09T05:33:07.157Z,98251.47
2022-11-09T05:35:34.326Z,98245.94
2022-11-09T05:38:00.922Z,98241.28
2022-11-09T05:40:27.613Z,98244.53
2022-11-09T05:42:55.928Z,98250.50
2022-11-09T05:45:50.944Z,98242.78
2022-11-09T05:48:09.920Z,98245.78
2022-11-09T05:50:37.500Z,98234.63
2022-11-09T05:53:04.414Z,98233.78
2022-11-09T05:55:31.021Z,98238.94
2022-11-09T05:57:59.793Z,98243.28
2022-11-09T06:00:36.658Z,98235.50
2022-11-09T06:03:11.197Z,98243.59
2022-11-09T06:05:47.478Z,98246.41
2022-11-09T06:08:24.115Z,98253.34
2022-11-09T06:11:04.893Z,98257.91
2022-11-09T06:13:39.180Z,98259.16
2022-11-09T06:16:10.995Z,98257.06
2022-11-09T06:18:39.437Z,98260.16
2022-11-09T06:21:09.933Z,98256.56
2022-11-09T06:23:37.232Z,98265.84
2022-11-09T06:26:11.118Z,98265.84
2022-11-09T06:28:47.720Z,98271.53
2022-11-09T06:31:16.558Z,98271.91
2022-11-09T06:33:43.358Z,98274.75
2022-11-09T06:36:12.990Z,98281.88
2022-11-09T06:38:40.286Z,98293.00
2022-11-09T06:41:07.201Z,98294.38
2022-11-09T06:43:33.952Z,98291.53
2022-11-09T06:46:04.671Z,98297.38
2022-11-09T06:48:31.427Z,98292.13
2022-11-09T06:51:03.056Z,98301.41
2022-11-09T06:53:31.652Z,98298.41
2022-11-09T06:56:03.192Z,98301.91
2022-11-09T06:58:31.105Z,98302.34
2022-11-09T07:00:58.574Z,98309.63
2022-11-09T07:03:25.834Z,98311.13
2022-11-09T07:05:53.234Z,98311.13
2022-11-09T07:08:19.942Z,98312.34
2022-11-09T07:10:46.616Z,98308.31
2022-11-09T07:13:17.871Z,98317.72
2022-11-09T07:15:44.596Z,98320.19
2022-11-09T07:18:12.674Z,98318.47
2022-11-09T07:20:39.254Z,98326.94
2022-11-09T07:23:05.905Z,98328.13
2022-11-09T07:25:32.640Z,98328.59
2022-11-09T07:28:04.727Z,98331.84
2022-11-09T07:30:31.432Z,98335.47
2022-11-09T07:33:09.289Z,98333.41
2022-11-09T07:35:46.936Z,98328.44
2022-11-09T07:38:15.878Z,98322.53
2022-11-09T07:40:44.033Z,98326.75
2022-11-09T07:43:12.364Z,98325.59
2022-11-09T07:45:39.355Z,98313.19
2022-11-09T07:48:09.487Z,98326.19
2022-11-09T07:50:38.211Z,98317.56
2022-11-09T07:53:07.066Z,98319.03
2022-11-09T07:55:35.090Z,98333.66
2022-11-09T07:58:06.895Z,98338.63
2022-11-09T08:00:36.652Z,98335.19
2022-11-09T08:03:04.316Z,98344.34
2022-11-09T08:05:31.679Z,98339.66
2022-11-09T08:08:01.260Z,98349.53
2022-11-09T08:10:29.645Z,98348.00
2022-11-09T08:13:01.825Z,98344.97
2022-11-09T08:15:29.701Z,98340.97
2022-11-09T08:18:04.902Z,98339.13
2022-11-09T08:20:32.008Z,98348.59
2022-11-09T08:23:03.703Z,98337.81
2022-11-09T08:25:34.043Z,98352.34
2022-11-09T08:28:00.830Z,98333.53
2022-11-09T08:30:27.469Z,98339.66
2022-11-09T08:32:54.104Z,98344.34
2022-11-09T08:35:23.373Z,98336.13
2022-11-09T08:37:52.263Z,98343.59
2022-11-09T08:40:22.326Z,98351.53
2022-11-09T08:42:49.693Z,98338.88
2022-11-09T08:45:17.545Z,98340.09
2022-11-09T08:47:44.533Z,98346.31
2022-11-09T08:50:16.734Z,98342.56
2022-11-09T08:52:43.312Z,98341.16
2022-11-09T08:55:10.307Z,98350.28
2022-11-09T08:57:36.974Z,98346.69
2022-11-09T09:00:05.831Z,98338.63
2022-11-09T09:02:32.459Z,98334.72
2022-11-09T09:04:59.182Z,98333.34
2022-11-09T09:07:25.985Z,98329.75
2022-11-09T09:09:52.558Z,98340.28
2022-11-09T09:12:19.349Z,98327.19
2022-11-09T09:14:45.949Z,98337.00
2022-11-09T09:17:12.609Z,98336.75
2022-11-09T09:19:39.184Z,98343.84
2022-11-09T09:22:05.825Z,98339.22
2022-11-09T09:24:32.668Z,98346.28
2022-11-09T09:26:59.405Z,98346.97
2022-11-09T09:29:25.984Z,98356.16
2022-11-09T09:31:52.549Z,98346.13
2022-11-09T09:34:19.123Z,98360.84
2022-11-09T09:36:48.243Z,98346.72
2022-11-09T09:39:15.681Z,98358.25
2022-11-09T09:41:55.601Z,98354.00
2022-11-09T09:44:30.572Z,98361.28
2022-11-09T09:47:27.843Z,98360.94
2022-11-09T09:50:03.913Z,98372.22
2022-11-09T09:53:10.520Z,98381.75
2022-11-09T09:55:55.248Z,98375.41
2022-11-09T09:58:32.575Z,98371.91
2022-11-09T10:01:14.203Z,98373.75
2022-11-09T10:03:41.036Z,98376.94
2022-11-09T10:06:49.095Z,98375.94
2022-11-09T10:09:33.399Z,98375.03
2022-11-09T10:12:39.583Z,98372.22
2022-11-09T10:15:40.884Z,98377.25
2022-11-09T10:18:45.513Z,98378.34
2022-11-09T10:21:36.652Z,98378.75
2022-11-09T10:24:34.668Z,98383.97
2022-11-09T10:27:24.959Z,98378.34
2022-11-09T10:29:51.717Z,98387.41
2022-11-09T10:32:23.220Z,98383.69
2022-11-09T10:34:56.984Z,98381.28
2022-11-09T10:37:38.872Z,98387.22
2022-11-09T10:40:30.868Z,98382.03
2022-11-09T10:43:02.237Z,98382.97
2022-11-09T10:45:38.515Z,98383.22
2022-11-09T10:48:10.010Z,98389.84
2022-11-09T10:50:54.488Z,98388.66
2022-11-09T10:53:21.955Z,98388.75
2022-11-09T10:55:55.834Z,98387.38
2022-11-09T10:58:32.115Z,98382.88
2022-11-09T11:01:15.736Z,98381.22
2022-11-09T11:03:44.391Z,98376.38
2022-11-09T11:06:26.824Z,98384.50
2022-11-09T11:09:05.640Z,98388.13
2022-11-09T11:11:36.686Z,98373.94
2022-11-09T11:14:23.300Z,98368.44
2022-11-09T11:16:52.821Z,98368.38
2022-11-09T11:19:43.176Z,98379.72
2022-11-09T11:22:13.846Z,98380.28
2022-11-09T11:25:02.961Z,98384.91
2022-11-09T11:27:46.990Z,98391.53
2022-11-09T11:30:19.377Z,98391.41
2022-11-09T11:32:50.370Z,98395.88
2022-11-09T11:35:23.984Z,98399.53
2022-11-09T11:38:07.070Z,98398.16
2022-11-09T11:40:56.586Z,98397.31
2022-11-09T11:43:51.516Z,98394.47
2022-11-09T11:46:40.425Z,98392.22
2022-11-09T11:49:49.238Z,98390.59
2022-11-09T11:52:26.355Z,98390.84
2022-11-09T11:55:30.059Z,98385.63
2022-11-09T11:58:37.246Z,98388.63
2022-11-09T12:01:53.369Z,98388.41
2022-11-09T12:04:44.852Z,98374.84
2022-11-09T12:07:36.453Z,98374.72
2022-11-09T12:10:21.164Z,98377.88
2022-11-09T12:13:11.820Z,98376.63
2022-11-09T12:16:25.946Z,98366.91
2022-11-09T12:19:02.092Z,98364.38
2022-11-09T12:21:51.424Z,98372.16
2022-11-09T12:24:34.929Z,98375.28
2022-11-09T12:27:37.981Z,98384.47
2022-11-09T12:30:16.631Z,98375.91
2022-11-09T12:32:56.226Z,98376.75
2022-11-09T12:35:51.455Z,98371.53
2022-11-09T12:38:33.687Z,98376.75
2022-11-09T12:41:07.617Z,98379.81
2022-11-09T12:43:48.343Z,98381.00
2022-11-09T12:46:16.550Z,98393.28
2022-11-09T12:48:44.547Z,98383.56
2022-11-09T12:51:11.266Z,98388.84
2022-11-09T12:53:39.213Z,98387.66
2022-11-09T12:56:40.154Z,98375.78
2022-11-09T12:59:21.221Z,98382.16
2022-11-09T13:01:54.758Z,98378.66
2022-11-09T13:04:24.343Z,98383.03
2022-11-09T13:07:04.304Z,98382.34
2022-11-09T13:09:44.067Z,98385.31
2022-11-09T13:12:27.069Z,98379.91
2022-11-09T13:15:24.731Z,98385.09
2022-11-09T13:17:58.270Z,98388.81
2022-11-09T13:24:01.437Z,98387.66
2022-11-09T13:26:32.041Z,98404.59
2022-11-09T13:29:35.594Z,98400.72
2022-11-09T13:32:11.429Z,98405.34
2022-11-09T13:35:00.457Z,98397.47
2022-11-09T13:37:42.200Z,98398.81
2022-11-09T13:40:31.293Z,98391.63
2022-11-09T13:43:09.829Z,98393.25
2022-11-09T13:45:47.188Z,98385.06
2022-11-09T13:48:43.405Z,98388.66
2022-11-09T13:51:17.578Z,98382.66
2022-11-09T13:53:58.746Z,98383.88
2022-11-09T13:56:37.717Z,98387.25
2022-11-09T13:59:22.507Z,98394.47
2022-11-09T14:01:53.887Z,98398.97
2022-11-09T14:04:36.575Z,98395.13
2022-11-09T14:07:07.262Z,98389.03
2022-11-09T14:10:07.982Z,98389.88
2022-11-09T14:13:28.134Z,98392.88
2022-11-09T14:16:06.614Z,98394.56
2022-11-09T14:18:48.431Z,98406.41
2022-11-09T14:21:50.555Z,98396.34
2022-11-09T14:24:28.842Z,98399.66
2022-11-09T14:27:10.780Z,98401.44
2022-11-09T14:29:57.814Z,98406.66
2022-11-09T14:32:35.583Z,98401.84
2022-11-09T14:35:12.535Z,98399.22
2022-11-09T14:37:44.464Z,98406.22
2022-11-09T14:40:26.486Z,98401.22
2022-11-09T14:43:29.040Z,98405.19
2022-11-09T14:46:01.959Z,98405.59
2022-11-09T14:48:31.398Z,98412.16
2022-11-09T14:51:01.446Z,98406.69
2022-11-09T14:53:37.238Z,98421.00
2022-11-09T14:56:07.378Z,98424.47
2022-11-09T14:58:39.502Z,98424.09
2022-11-09T15:01:16.966Z,98433.50
2022-11-09T15:03:45.390Z,98429.03
2022-11-09T15:06:15.764Z,98428.78
2022-11-09T15:08:55.653Z,98436.00
2022-11-09T15:11:32.962Z,98433.56
2022-11-09T15:14:00.495Z,98431.81
2022-11-09T15:16:30.967Z,98424.00
2022-11-09T15:18:57.700Z,98431.91
2022-11-09T15:21:24.667Z,98440.75
2022-11-09T15:24:05.606Z,98440.00
2022-11-09T15:26:41.128Z,98452.63
2022-11-09T15:29:36.848Z,98443.25
2022-11-09T15:32:16.701Z,98440.97
2022-11-09T15:34:55.289Z,98436.03
2022-11-09T15:37:37.544Z,98447.44
2022-11-09T15:40:10.779Z,98440.47
2022-11-09T15:42:40.049Z,98446.47
2022-11-09T15:45:13.528Z,98456.34
2022-11-09T15:47:40.461Z,98463.56
2022-11-09T15:50:17.755Z,98464.53
2022-11-09T15:52:44.429Z,98466.72
2022-11-09T15:55:21.927Z,98472.41
2022-11-09T15:57:50.758Z,98475.34
2022-11-09T16:00:21.258Z,98487.41
2022-11-09T16:02:48.409Z,98478.56
2022-11-09T16:05:15.888Z,98491.72
2022-11-09T16:07:50.438Z,98488.44
2022-11-09T16:10:20.202Z,98482.25
2022-11-09T16:12:47.312Z,98486.38
2022-11-09T16:15:14.214Z,98490.44
2022-11-09T16:17:40.850Z,98492.13
2022-11-09T16:20:08.141Z,98494.56
2022-11-09T16:22:34.767Z,98502.94
2022-11-09T16:25:01.477Z,98498.09
2022-11-09T16:27:49.185Z,98505.88
2022-11-09T16:30:15.826Z,98510.94
2022-11-09T16:32:42.478Z,98508.09
2022-11-09T16:37:57.942Z,98513.06
2022-11-09T16:40:25.714Z,98524.06
2022-11-09T16:42:52.401Z,98527.31
2022-11-09T16:45:20.599Z,98526.09
2022-11-09T16:47:56.629Z,98524.59
2022-11-09T16:50:24.157Z,98527.19
2022-11-09T16:52:50.750Z,98537.66
2022-11-09T16:55:17.441Z,98544.66
2022-11-09T16:57:46.016Z,98536.91
2022-11-09T17:00:14.221Z,98545.59
2022-11-09T17:02:40.798Z,98543.56
2022-11-09T17:05:08.025Z,98551.78
2022-11-09T17:07:42.202Z,98551.44
2022-11-09T17:10:11.115Z,98551.28
2022-11-09T17:12:37.694Z,98565.72
2022-11-09T17:15:04.662Z,98577.84
2022-11-09T17:17:32.679Z,98575.84
2022-11-09T17:20:01.275Z,98578.75
2022-11-09T17:22:27.894Z,98585.59
2022-11-09T17:24:54.470Z,98584.91
2022-11-09T17:27:21.069Z,98586.09
2022-11-09T17:29:47.767Z,98598.78
2022-11-09T17:32:14.405Z,98604.34
2022-11-09T17:34:40.963Z,98600.75
2022-11-09T17:37:07.546Z,98603.44
2022-11-09T17:39:34.835Z,98604.78
2022-11-09T17:42:01.482Z,98614.34
2022-11-09T17:44:28.163Z,98616.13
2022-11-09T17:46:54.768Z,98626.72
2022-11-09T17:49:21.330Z,98625.38
2022-11-09T17:51:47.958Z,98617.19
2022-11-09T17:54:14.839Z,98620.16
2022-11-09T17:56:41.952Z,98626.91
2022-11-09T17:59:08.960Z,98621.38
2022-11-09T18:01:41.608Z,98625.69
2022-11-09T18:04:10.633Z,98637.22
2022-11-09T18:06:38.209Z,98637.47
2022-11-09T18:11:52.344Z,98637.94
2022-11-09T18:14:19.414Z,98631.69
2022-11-09T18:16:46.469Z,98638.38
2022-11-09T18:19:13.266Z,98638.25
2022-11-09T18:21:40.010Z,98637.22
2022-11-09T18:24:07.395Z,98640.97
2022-11-09T18:26:34.397Z,98634.50
2022-11-09T18:29:00.998Z,98630.88
2022-11-09T18:31:27.631Z,98639.72
2022-11-09T18:33:54.361Z,98639.59
2022-11-09T18:36:21.683Z,98642.72
2022-11-09T18:38:51.741Z,98648.88
2022-11-09T18:41:24.712Z,98655.00
2022-11-09T18:43:53.741Z,98656.94
2022-11-09T18:46:21.642Z,98656.00
2022-11-09T18:48:54.553Z,98666.22
2022-11-09T18:51:21.567Z,98666.78
2022-11-09T18:53:49.066Z,98673.66
2022-11-09T18:56:21.559Z,98675.91
2022-11-09T18:58:52.878Z,98682.34
2022-11-09T19:01:22.938Z,98679.66
2022-11-09T19:03:53.848Z,98685.03
2022-11-09T19:06:24.225Z,98702.66
2022-11-09T19:09:09.620Z,98701.03
2022-11-09T19:11:36.959Z,98706.13
2022-11-09T19:14:03.826Z,98709.72
2022-11-09T19:16:33.058Z,98709.88
2022-11-09T19:18:59.845Z,98714.22
2022-11-09T19:21:53.042Z,98714.66
2022-11-09T19:24:23.414Z,98721.13
2022-11-09T19:26:50.634Z,98722.75
2022-11-09T19:29:17.786Z,98719.75
2022-11-09T19:31:45.838Z,98735.31
2022-11-09T19:34:18.580Z,98724.97
2022-11-09T19:36:45.939Z,98732.88
2022-11-09T19:39:15.826Z,98736.22
2022-11-09T19:41:42.768Z,98730.34
2022-11-09T19:44:12.676Z,98735.16
2022-11-09T19:46:39.307Z,98731.66
2022-11-09T19:49:07.159Z,98734.56
2022-11-09T19:51:34.729Z,98741.28
2022-11-09T19:54:03.317Z,98742.16
2022-11-09T19:56:34.239Z,98746.63
2022-11-09T19:59:02.236Z,98752.00
2022-11-09T20:01:30.582Z,98748.44
2022-11-09T20:04:00.351Z,98760.16
2022-11-09T20:06:28.526Z,98758.44
2022-11-09T20:08:55.924Z,98764.44
2022-11-09T20:11:44.367Z,98764.16
2022-11-09T20:14:12.323Z,98767.00
2022-11-09T20:16:41.131Z,98774.50
2022-11-09T20:19:11.030Z,98783.16
2022-11-09T20:21:40.039Z,98786.47
2022-11-09T20:24:08.050Z,98784.53
2022-11-09T20:26:34.656Z,98781.97
2022-11-09T20:29:01.254Z,98794.25
2022-11-09T20:31:28.074Z,98791.56
2022-11-09T20:33:56.502Z,98799.50
2022-11-09T20:36:23.075Z,98802.91
2022-11-09T20:38:52.962Z,98793.78
2022-11-09T20:41:24.222Z,98807.13
2022-11-09T20:43:53.213Z,98809.94
2022-11-09T20:46:24.364Z,98811.72
2022-11-09T20:48:55.065Z,98811.28
2022-11-09T20:51:23.633Z,98818.91
2022-11-09T20:53:52.006Z,98813.22
2022-11-09T20:56:21.462Z,98828.78
2022-11-09T20:58:48.117Z,98834.88
2022-11-09T21:01:26.671Z,98835.78
2022-11-09T21:03:54.055Z,98846.50
2022-11-09T21:06:21.434Z,98846.63
2022-11-09T21:08:55.735Z,98848.59
2022-11-09T21:11:28.575Z,98855.56
2022-11-09T21:13:55.883Z,98861.22
2022-11-09T21:16:23.440Z,98855.31
2022-11-09T21:18:50.078Z,98866.16
2022-11-09T21:21:21.370Z,98865.19
2022-11-09T21:24:06.849Z,98876.03
2022-11-09T21:26:52.250Z,98870.03
2022-11-09T21:29:40.811Z,98873.91
2022-11-09T21:32:08.637Z,98877.22
2022-11-09T21:34:37.196Z,98892.41
2022-11-09T21:37:04.984Z,98892.31
2022-11-09T21:39:32.293Z,98898.50
2022-11-09T21:41:59.251Z,98901.31
2022-11-09T21:44:28.879Z,98909.03
2022-11-09T21:46:55.550Z,98905.91
2022-11-09T21:49:22.216Z,98909.47
2022-11-09T21:51:48.882Z,98909.59
2022-11-09T21:54:15.745Z,98912.00
2022-11-09T21:56:42.706Z,98917.94
2022-11-09T21:59:09.701Z,98914.16
2022-11-09T22:01:36.399Z,98925.50
2022-11-09T22:04:03.006Z,98928.84
2022-11-09T22:06:30.100Z,98921.38
2022-11-09T22:09:01.027Z,98922.19
2022-11-09T22:11:46.493Z,98922.84
2022-11-09T22:14:37.035Z,98927.38
2022-11-09T22:17:08.415Z,98928.41
2022-11-09T22:19:56.695Z,98937.19
2022-11-09T22:22:24.351Z,98934.69
2022-11-09T22:24:50.908Z,98943.41
2022-11-09T22:27:17.559Z,98947.78
2022-11-09T22:29:44.187Z,98952.47
2022-11-09T22:32:10.763Z,98957.59
2022-11-09T22:34:37.404Z,98949.47
2022-11-09T22:37:04.044Z,98957.28
2022-11-09T22:39:30.611Z,98951.13
2022-11-09T22:41:57.225Z,98964.31
2022-11-09T22:44:23.814Z,98968.59
2022-11-09T22:46:50.461Z,98970.25
2022-11-09T22:49:18.979Z,98970.16
2022-11-09T22:51:45.635Z,98973.66
2022-11-09T22:54:12.187Z,98967.47
2022-11-09T22:56:38.827Z,98970.97
2022-11-09T22:59:05.519Z,98976.41
2022-11-09T23:01:32.227Z,98977.91
2022-11-09T23:03:58.871Z,98981.78
2022-11-09T23:06:25.907Z,98986.53
2022-11-09T23:08:52.701Z,98989.97
2022-11-09T23:11:22.535Z,98993.56
2022-11-09T23:13:51.415Z,98991.72
2022-11-09T23:16:18.942Z,98993.78
2022-11-09T23:18:55.434Z,98997.28
2022-11-09T23:21:23.206Z,98998.91
2022-11-09T23:23:54.878Z,98995.94
2022-11-09T23:26:23.169Z,99000.59
2022-11-09T23:28:50.061Z,99001.16
2022-11-09T23:31:19.450Z,98990.25
2022-11-09T23:33:48.209Z,99003.94
2022-11-09T23:36:14.850Z,98995.94
2022-11-09T23:38:41.747Z,99005.25
2022-11-09T23:41:11.631Z,99012.78
2022-11-09T23:43:38.302Z,99012.09
2022-11-09T23:46:09.131Z,99014.78
2022-11-09T23:48:36.127Z,99012.09
2022-11-09T23:51:03.901Z,99025.22
2022-11-09T23:53:31.674Z,99022.22
2022-11-09T23:56:04.736Z,99020.97
2022-11-09T23:58:31.778Z,99027.97
